Time;durP1;ratioP1;P1;durP2;ratioP2;P2;SDS_P1;SDS_P2;PMS_P1;PMS_P2;Temp;Humidity;BMP_temperature;BMP_pressure;BME280_temperature;BME280_humidity;BME280_pressure;Samples;Min_cycle;Max_cycle;Signal;HPM_P1;HPM_P2
2021/01/09 00:00:36;;;;;;;11.40;7.60;;;2.70;99.90;;;;;;5002475;28;20308;-86
2021/01/09 00:03:02;;;;;;;13.13;8.20;;;2.70;99.90;;;;;;5016559;28;20169;-86
2021/01/09 00:05:28;;;;;;;11.73;7.00;;;2.70;99.90;;;;;;5015126;28;20183;-87
2021/01/09 00:07:53;;;;;;;12.17;7.57;;;2.70;99.90;;;;;;5001273;28;20169;-87
2021/01/09 00:10:19;;;;;;;14.93;9.20;;;2.70;99.90;;;;;;5019495;28;20184;-87
2021/01/09 00:12:44;;;;;;;10.13;6.80;;;2.70;99.90;;;;;;5003349;28;20163;-87
2021/01/09 00:15:10;;;;;;;11.00;7.33;;;2.70;99.90;;;;;;5003251;28;20219;-86
2021/01/09 00:17:36;;;;;;;11.10;6.97;;;2.60;99.90;;;;;;5016646;28;20782;-84
2021/01/09 00:20:08;;;;;;;15.70;8.43;;;2.60;99.90;;;;;;5017998;28;20518;-85
2021/01/09 00:22:35;;;;;;;12.83;7.93;;;2.60;99.90;;;;;;5016204;28;20942;-87
2021/01/09 00:25:02;;;;;;;10.07;6.33;;;2.60;99.90;;;;;;5014070;28;20432;-87
2021/01/09 00:27:27;;;;;;;11.43;7.07;;;2.60;99.90;;;;;;5012241;28;20420;-87
2021/01/09 00:29:53;;;;;;;11.27;6.67;;;2.60;99.90;;;;;;5013412;28;20563;-86
2021/01/09 00:32:18;;;;;;;10.27;6.93;;;2.60;99.90;;;;;;5013407;28;20167;-88
2021/01/09 00:34:44;;;;;;;12.53;7.20;;;2.60;99.90;;;;;;5013156;28;20288;-87
2021/01/09 00:37:09;;;;;;;10.73;6.37;;;2.60;99.90;;;;;;5012386;28;20271;-86
2021/01/09 00:39:35;;;;;;;12.40;6.93;;;2.70;99.90;;;;;;5011949;28;20182;-86
2021/01/09 00:42:01;;;;;;;11.13;5.73;;;2.70;99.90;;;;;;5012997;28;20243;-87
2021/01/09 00:44:27;;;;;;;14.67;7.53;;;2.60;99.90;;;;;;5013733;28;20175;-84
2021/01/09 00:46:57;;;;;;;14.30;7.90;;;2.60;99.90;;;;;;5011989;28;20425;-87
2021/01/09 00:49:23;;;;;;;12.97;8.20;;;2.60;99.90;;;;;;5012671;28;20420;-86
2021/01/09 00:51:49;;;;;;;11.27;7.07;;;2.60;99.90;;;;;;5013255;28;20410;-87
2021/01/09 00:54:14;;;;;;;14.37;8.10;;;2.60;99.90;;;;;;5007785;28;20471;-87
2021/01/09 00:56:40;;;;;;;11.80;7.83;;;2.60;99.90;;;;;;4995794;28;20225;-87
2021/01/09 00:59:05;;;;;;;12.97;7.20;;;2.60;99.90;;;;;;5003188;28;20256;-87
2021/01/09 01:01:32;;;;;;;11.47;6.20;;;2.60;99.90;;;;;;5002634;28;20170;-87
2021/01/09 01:03:57;;;;;;;10.57;6.37;;;2.60;99.90;;;;;;4998599;28;21203;-84
2021/01/09 01:06:24;;;;;;;11.20;6.87;;;2.60;99.90;;;;;;5003052;28;20451;-84
2021/01/09 01:08:50;;;;;;;10.57;6.70;;;2.60;99.90;;;;;;5001693;28;20626;-84
2021/01/09 01:11:24;;;;;;;10.53;7.73;;;2.60;99.90;;;;;;4999836;28;20516;-84
2021/01/09 01:13:50;;;;;;;13.50;8.10;;;2.60;99.90;;;;;;5001974;28;20415;-84
2021/01/09 01:16:16;;;;;;;10.07;6.77;;;2.50;99.90;;;;;;5017797;28;20861;-84
2021/01/09 01:18:42;;;;;;;11.30;7.10;;;2.60;99.90;;;;;;4999357;28;20414;-85
2021/01/09 01:21:07;;;;;;;12.83;6.80;;;2.50;99.90;;;;;;5001059;28;20181;-84
2021/01/09 01:23:33;;;;;;;7.60;5.40;;;2.50;99.90;;;;;;5017277;28;20168;-85
2021/01/09 01:25:58;;;;;;;9.40;5.10;;;2.50;99.90;;;;;;5002191;28;20173;-83
2021/01/09 01:28:24;;;;;;;9.80;6.60;;;2.50;99.90;;;;;;5001824;28;20173;-85
2021/01/09 01:30:49;;;;;;;10.70;7.40;;;2.50;99.90;;;;;;5020338;28;20305;-84
2021/01/09 01:33:15;;;;;;;11.70;7.00;;;2.50;99.90;;;;;;4999009;28;20657;-83
2021/01/09 01:35:41;;;;;;;10.50;5.70;;;2.50;99.90;;;;;;5000818;28;20209;-83
2021/01/09 01:38:06;;;;;;;13.77;7.10;;;2.50;99.90;;;;;;5001815;28;20422;-83
2021/01/09 01:40:32;;;;;;;12.60;8.03;;;2.40;99.90;;;;;;4999416;28;20187;-84
2021/01/09 01:42:57;;;;;;;10.00;6.53;;;2.40;99.90;;;;;;5016459;28;20184;-84
2021/01/09 01:45:23;;;;;;;10.60;7.37;;;2.40;99.90;;;;;;5001399;28;20653;-83
2021/01/09 01:47:49;;;;;;;11.07;6.87;;;2.40;99.90;;;;;;5012346;28;20611;-83
2021/01/09 01:50:15;;;;;;;9.83;6.20;;;2.50;99.90;;;;;;4999944;28;20183;-84
2021/01/09 01:52:41;;;;;;;11.03;5.97;;;2.50;99.90;;;;;;5001056;28;20260;-84
2021/01/09 01:55:08;;;;;;;13.00;8.20;;;2.40;99.90;;;;;;5003355;28;20892;-84
2021/01/09 01:57:34;;;;;;;11.30;6.93;;;2.50;99.90;;;;;;5021052;28;20408;-83
2021/01/09 02:00:00;;;;;;;9.40;6.53;;;2.50;99.90;;;;;;5004368;28;20992;-84
2021/01/09 02:02:25;;;;;;;10.10;5.47;;;2.60;99.90;;;;;;5004772;28;20507;-84
2021/01/09 02:05:02;;;;;;;8.33;4.70;;;2.60;99.90;;;;;;5001227;28;20185;-84
2021/01/09 02:07:33;;;;;;;13.03;7.30;;;2.60;99.90;;;;;;4998380;28;20173;-83
2021/01/09 02:10:01;;;;;;;12.20;6.97;;;2.50;99.90;;;;;;5011449;28;20776;-83
2021/01/09 02:12:39;;;;;;;10.83;7.20;;;2.50;99.90;;;;;;5011372;28;20513;-84
2021/01/09 02:15:05;;;;;;;13.53;8.07;;;2.50;99.90;;;;;;4996137;28;20833;-84
2021/01/09 02:17:32;;;;;;;8.90;6.13;;;2.40;99.90;;;;;;5011281;28;20419;-86
2021/01/09 02:19:59;;;;;;;10.87;6.70;;;2.40;99.90;;;;;;5011058;28;20933;-84
2021/01/09 02:22:25;;;;;;;10.20;6.10;;;2.40;99.90;;;;;;4996355;28;20409;-86
2021/01/09 02:24:51;;;;;;;12.90;7.40;;;2.40;99.90;;;;;;4996211;28;20430;-86
2021/01/09 02:27:17;;;;;;;9.90;5.57;;;2.30;99.90;;;;;;4994899;28;20507;-86
2021/01/09 02:29:58;;;;;;;15.57;9.13;;;2.40;99.90;;;;;;4994683;28;20478;-87
2021/01/09 02:32:53;;;;;;;13.23;6.40;;;2.40;99.90;;;;;;4994709;28;20411;-86
2021/01/09 02:35:22;;;;;;;11.70;7.10;;;2.50;99.90;;;;;;4995048;28;20891;-87
2021/01/09 02:37:49;;;;;;;11.43;6.17;;;2.50;99.90;;;;;;4994606;28;20419;-86
2021/01/09 02:40:18;;;;;;;11.53;6.73;;;2.50;99.90;;;;;;4994662;28;20420;-86
2021/01/09 02:42:44;;;;;;;10.80;7.00;;;2.60;99.90;;;;;;5010958;28;20516;-87
2021/01/09 02:45:10;;;;;;;11.80;7.93;;;2.60;99.90;;;;;;4995835;28;20833;-84
2021/01/09 02:47:36;;;;;;;10.33;6.37;;;2.60;99.90;;;;;;4994374;28;20419;-84
2021/01/09 02:50:03;;;;;;;10.00;6.47;;;2.60;99.90;;;;;;4993820;28;20424;-85
2021/01/09 02:52:28;;;;;;;10.87;5.40;;;2.60;99.90;;;;;;4995482;28;20411;-84
2021/01/09 02:54:54;;;;;;;11.83;7.03;;;2.60;99.90;;;;;;5001207;28;20533;-85
2021/01/09 02:57:19;;;;;;;11.33;7.30;;;2.60;99.90;;;;;;5013513;28;20181;-84
2021/01/09 02:59:45;;;;;;;11.03;6.47;;;2.60;99.90;;;;;;5015125;28;20180;-86
2021/01/09 03:02:11;;;;;;;11.37;6.87;;;2.60;99.90;;;;;;5013620;28;20225;-84
2021/01/09 03:04:36;;;;;;;12.83;6.37;;;2.60;99.90;;;;;;5013178;28;20174;-85
2021/01/09 03:07:02;;;;;;;11.47;6.93;;;2.60;99.90;;;;;;4995438;28;20643;-83
2021/01/09 03:09:27;;;;;;;8.60;5.50;;;2.60;99.90;;;;;;4993559;28;20691;-83
2021/01/09 03:11:54;;;;;;;11.03;6.77;;;2.60;99.90;;;;;;4995073;28;20173;-83
2021/01/09 03:14:19;;;;;;;11.40;6.70;;;2.60;99.90;;;;;;4995046;28;20198;-83
2021/01/09 03:16:45;;;;;;;10.73;6.43;;;2.60;99.90;;;;;;4993747;28;20984;-83
2021/01/09 03:19:10;;;;;;;12.83;6.30;;;2.60;99.90;;;;;;4994905;28;20178;-84
2021/01/09 03:21:36;;;;;;;9.87;7.03;;;2.60;99.90;;;;;;4993826;28;20180;-84
2021/01/09 03:24:01;;;;;;;10.97;6.57;;;2.60;99.90;;;;;;5009880;28;20184;-85
2021/01/09 03:26:27;;;;;;;11.03;6.73;;;2.50;99.90;;;;;;4993569;28;20173;-83
2021/01/09 03:28:53;;;;;;;10.67;6.40;;;2.60;99.90;;;;;;4993273;28;20178;-84
2021/01/09 03:31:18;;;;;;;11.10;7.30;;;2.50;99.90;;;;;;4994934;28;20252;-84
2021/01/09 03:33:44;;;;;;;11.23;7.83;;;2.50;99.90;;;;;;4994261;28;20190;-84
2021/01/09 03:36:10;;;;;;;11.93;6.70;;;2.50;99.90;;;;;;4994567;28;20239;-84
2021/01/09 03:38:35;;;;;;;12.20;7.10;;;2.60;99.90;;;;;;4993410;28;20182;-84
2021/01/09 03:41:01;;;;;;;10.10;7.23;;;2.60;99.90;;;;;;5009563;28;20569;-84
2021/01/09 03:43:27;;;;;;;10.73;6.00;;;2.60;99.90;;;;;;5015079;28;20183;-83
2021/01/09 03:45:52;;;;;;;13.03;7.43;;;2.60;99.90;;;;;;5002936;28;20581;-87
2021/01/09 03:48:18;;;;;;;11.07;7.60;;;2.60;99.90;;;;;;5009264;28;20547;-87
2021/01/09 03:50:43;;;;;;;12.77;7.10;;;2.60;99.90;;;;;;5003371;28;20277;-87
2021/01/09 03:53:09;;;;;;;10.30;6.57;;;2.60;99.90;;;;;;5004610;28;20721;-87
2021/01/09 03:55:34;;;;;;;13.37;6.90;;;2.60;99.90;;;;;;4996687;28;20211;-87
2021/01/09 03:58:00;;;;;;;11.57;6.60;;;2.70;99.90;;;;;;5023008;28;20172;-88
2021/01/09 04:00:26;;;;;;;15.03;7.90;;;2.70;99.90;;;;;;5007567;28;20293;-87
2021/01/09 04:02:51;;;;;;;11.60;7.67;;;2.70;99.90;;;;;;5013912;28;20173;-86
2021/01/09 04:05:17;;;;;;;13.20;9.10;;;2.80;99.90;;;;;;5001728;28;20233;-86
2021/01/09 04:07:42;;;;;;;11.03;6.77;;;2.70;99.90;;;;;;5020148;28;20250;-87
2021/01/09 04:10:08;;;;;;;10.20;6.90;;;2.70;99.90;;;;;;5007736;28;20644;-86
2021/01/09 04:12:34;;;;;;;11.20;7.73;;;2.70;99.90;;;;;;5003642;28;20271;-87
2021/01/09 04:14:59;;;;;;;12.13;8.87;;;2.70;99.90;;;;;;5000714;28;20296;-87
2021/01/09 04:17:25;;;;;;;12.17;7.30;;;2.70;99.90;;;;;;5001302;28;20163;-87
2021/01/09 04:19:50;;;;;;;14.77;7.50;;;2.70;99.90;;;;;;5018374;28;20553;-86
2021/01/09 04:22:16;;;;;;;10.77;6.93;;;2.80;99.90;;;;;;5004047;28;20329;-88
2021/01/09 04:24:42;;;;;;;10.60;7.30;;;2.80;99.90;;;;;;5002339;28;20186;-88
2021/01/09 04:27:07;;;;;;;11.03;7.23;;;2.70;99.90;;;;;;4998559;28;20522;-88
2021/01/09 04:29:33;;;;;;;13.97;6.77;;;2.70;99.90;;;;;;5000252;28;20240;-88
2021/01/09 04:31:58;;;;;;;11.13;7.57;;;2.70;99.90;;;;;;5004048;28;20209;-87
2021/01/09 04:34:25;;;;;;;11.23;7.10;;;2.80;99.90;;;;;;5003764;28;20201;-86
2021/01/09 04:36:51;;;;;;;11.60;7.10;;;2.80;99.90;;;;;;5000881;28;20176;-87
2021/01/09 04:39:17;;;;;;;12.63;7.50;;;2.90;99.90;;;;;;5003669;28;20479;-86
2021/01/09 04:41:43;;;;;;;14.90;8.40;;;2.80;99.90;;;;;;5004187;28;20444;-84
2021/01/09 04:44:11;;;;;;;10.50;7.17;;;2.80;99.90;;;;;;5001394;28;20460;-87
2021/01/09 04:46:59;;;;;;;13.20;7.43;;;2.80;99.90;;;;;;5001355;28;20416;-85
2021/01/09 04:49:26;;;;;;;10.63;6.10;;;2.80;99.90;;;;;;5015685;28;20508;-84
2021/01/09 04:51:53;;;;;;;12.67;7.47;;;2.80;99.90;;;;;;5001232;28;20767;-84
2021/01/09 04:54:24;;;;;;;11.50;6.53;;;2.80;99.90;;;;;;5018270;28;20465;-83
2021/01/09 04:56:51;;;;;;;11.27;6.63;;;2.80;99.90;;;;;;4999420;28;20431;-84
2021/01/09 04:59:18;;;;;;;12.97;6.30;;;2.80;99.90;;;;;;5000237;28;20772;-83
2021/01/09 05:01:46;;;;;;;10.60;6.33;;;2.80;99.90;;;;;;5018156;28;20500;-84
2021/01/09 05:04:12;;;;;;;10.07;5.70;;;2.70;99.90;;;;;;5016007;28;20420;-84
2021/01/09 05:06:38;;;;;;;11.77;6.77;;;2.80;99.90;;;;;;5017834;28;20416;-87
2021/01/09 05:09:06;;;;;;;12.67;7.67;;;2.80;99.90;;;;;;4997198;28;20418;-84
2021/01/09 05:11:33;;;;;;;10.60;7.23;;;2.90;99.90;;;;;;5008428;28;20415;-83
2021/01/09 05:13:59;;;;;;;11.10;7.43;;;2.90;99.90;;;;;;4993434;28;20427;-87
2021/01/09 05:16:25;;;;;;;11.57;6.43;;;2.80;99.90;;;;;;4993935;28;20519;-87
2021/01/09 05:18:51;;;;;;;11.63;8.10;;;2.80;99.90;;;;;;4993562;28;20615;-86
2021/01/09 05:21:17;;;;;;;10.50;6.23;;;2.80;99.90;;;;;;4993935;28;20457;-87
2021/01/09 05:23:59;;;;;;;11.80;7.33;;;2.90;99.90;;;;;;5009033;28;20182;-88
2021/01/09 05:26:25;;;;;;;13.40;7.43;;;2.90;99.90;;;;;;4993782;28;20411;-87
2021/01/09 05:28:53;;;;;;;12.43;8.13;;;2.80;99.90;;;;;;4993980;28;20445;-87
2021/01/09 05:31:21;;;;;;;12.40;7.90;;;2.90;99.90;;;;;;4996317;28;20184;-86
2021/01/09 05:33:47;;;;;;;9.30;5.40;;;2.90;99.90;;;;;;4996994;28;20450;-87
2021/01/09 05:36:13;;;;;;;12.43;7.43;;;2.90;99.90;;;;;;4997503;28;20505;-88
2021/01/09 05:38:43;;;;;;;13.40;7.57;;;2.80;99.90;;;;;;4997521;28;21000;-88
2021/01/09 05:41:22;;;;;;;11.70;7.73;;;2.80;99.90;;;;;;4996379;28;20425;-87
2021/01/09 05:43:57;;;;;;;12.53;7.10;;;2.80;99.90;;;;;;4997626;28;20413;-87
2021/01/09 05:46:24;;;;;;;12.33;8.47;;;2.80;99.90;;;;;;4997368;28;20419;-87
2021/01/09 05:48:51;;;;;;;14.93;8.90;;;2.80;99.90;;;;;;4997014;28;20776;-87
2021/01/09 05:51:17;;;;;;;12.90;8.23;;;2.90;99.90;;;;;;4996121;28;20822;-87
2021/01/09 05:53:45;;;;;;;13.70;8.20;;;2.80;99.90;;;;;;4997314;28;20411;-88
2021/01/09 05:56:15;;;;;;;14.00;8.70;;;2.80;99.90;;;;;;4997307;28;20471;-87
2021/01/09 05:58:41;;;;;;;11.70;7.70;;;2.80;99.90;;;;;;4997250;28;20490;-86
2021/01/09 06:01:09;;;;;;;12.67;7.97;;;2.80;99.90;;;;;;4997177;28;20424;-88
2021/01/09 06:03:45;;;;;;;14.53;8.93;;;2.80;99.90;;;;;;4995606;28;20419;-86
2021/01/09 06:06:29;;;;;;;16.13;8.47;;;2.80;99.90;;;;;;4996864;28;20513;-88
2021/01/09 06:09:04;;;;;;;15.83;8.50;;;2.80;99.90;;;;;;4997028;28;20417;-87
2021/01/09 06:11:38;;;;;;;12.43;7.90;;;2.70;99.90;;;;;;4997009;28;20831;-84
2021/01/09 06:14:06;;;;;;;17.70;10.40;;;2.70;99.90;;;;;;4998299;28;20452;-88
2021/01/09 06:16:33;;;;;;;13.80;8.23;;;2.70;99.90;;;;;;4997950;28;20425;-87
2021/01/09 06:19:00;;;;;;;14.57;8.57;;;2.80;99.90;;;;;;4997411;28;20766;-87
2021/01/09 06:21:27;;;;;;;14.90;8.80;;;2.70;99.90;;;;;;4996641;28;20456;-86
2021/01/09 06:23:54;;;;;;;11.07;7.33;;;2.70;99.90;;;;;;4996407;28;20439;-86
2021/01/09 06:26:21;;;;;;;15.30;8.70;;;2.60;99.90;;;;;;4996519;28;20423;-87
2021/01/09 06:28:51;;;;;;;11.97;8.47;;;2.60;99.90;;;;;;4995041;28;20461;-87
2021/01/09 06:31:21;;;;;;;17.83;9.97;;;2.60;99.90;;;;;;4996322;28;20461;-87
2021/01/09 06:33:50;;;;;;;15.03;8.10;;;2.60;99.90;;;;;;4996083;28;20418;-87
2021/01/09 06:36:17;;;;;;;14.53;6.77;;;2.60;99.90;;;;;;4996289;28;20975;-87
2021/01/09 06:38:45;;;;;;;13.50;8.17;;;2.70;99.90;;;;;;4996160;28;20504;-87
2021/01/09 06:41:13;;;;;;;15.50;8.73;;;2.70;99.90;;;;;;4994305;28;20420;-85
2021/01/09 06:43:51;;;;;;;17.23;9.87;;;2.70;99.90;;;;;;4992192;28;20462;-87
2021/01/09 06:46:32;;;;;;;11.97;7.80;;;2.70;99.90;;;;;;4994480;28;20967;-86
2021/01/09 06:48:58;;;;;;;12.50;8.37;;;2.70;99.90;;;;;;4974663;28;20505;-84
2021/01/09 06:51:39;;;;;;;15.37;9.40;;;2.70;99.90;;;;;;4976215;28;20419;-85
2021/01/09 06:54:14;;;;;;;13.90;7.80;;;2.60;99.90;;;;;;4978456;28;20422;-84
2021/01/09 06:56:42;;;;;;;15.23;9.40;;;2.70;99.90;;;;;;5010498;28;20996;-84
2021/01/09 06:59:07;;;;;;;13.77;8.90;;;2.70;99.90;;;;;;4994276;28;20430;-84
2021/01/09 07:01:36;;;;;;;13.90;8.07;;;2.70;99.90;;;;;;4995519;28;20421;-84
2021/01/09 07:04:03;;;;;;;15.30;7.60;;;2.60;99.90;;;;;;4995147;28;20178;-84
2021/01/09 07:06:57;;;;;;;17.50;9.53;;;2.60;99.90;;;;;;4994078;28;20424;-86
2021/01/09 07:09:25;;;;;;;13.70;9.13;;;2.60;99.90;;;;;;4995338;28;20463;-84
2021/01/09 07:11:54;;;;;;;13.70;8.37;;;2.60;99.90;;;;;;4995115;28;20777;-84
2021/01/09 07:14:20;;;;;;;13.57;7.60;;;2.60;99.90;;;;;;4995153;28;20961;-84
2021/01/09 07:16:47;;;;;;;13.37;9.00;;;2.70;99.90;;;;;;4995115;28;20412;-84
2021/01/09 07:19:14;;;;;;;14.73;8.70;;;2.70;99.90;;;;;;4993550;28;20415;-85
2021/01/09 07:21:40;;;;;;;14.13;8.50;;;2.70;99.90;;;;;;4993754;28;20936;-84
2021/01/09 07:24:09;;;;;;;13.00;7.47;;;2.60;99.90;;;;;;4995037;28;20441;-83
2021/01/09 07:26:39;;;;;;;12.20;7.63;;;2.60;99.90;;;;;;4994958;28;21002;-84
2021/01/09 07:29:05;;;;;;;13.53;8.30;;;2.60;99.90;;;;;;4994710;28;20408;-84
2021/01/09 07:31:32;;;;;;;13.53;8.00;;;2.60;99.90;;;;;;4994896;28;20442;-84
2021/01/09 07:33:59;;;;;;;15.80;8.10;;;2.70;99.90;;;;;;4994364;28;20910;-83
2021/01/09 07:36:27;;;;;;;14.07;9.27;;;2.70;99.90;;;;;;4994802;28;20952;-83
2021/01/09 07:39:00;;;;;;;14.27;8.90;;;2.70;99.90;;;;;;4994773;28;20479;-83
2021/01/09 07:41:37;;;;;;;12.97;6.37;;;2.70;99.90;;;;;;4994655;28;20410;-84
2021/01/09 07:44:15;;;;;;;11.03;7.20;;;2.70;99.90;;;;;;5009675;28;20436;-84
2021/01/09 07:47:11;;;;;;;13.00;7.63;;;2.70;99.90;;;;;;4994627;28;20762;-84
2021/01/09 07:49:37;;;;;;;11.00;7.53;;;2.80;99.90;;;;;;4982351;28;20428;-82
2021/01/09 07:52:05;;;;;;;12.43;8.40;;;2.70;99.90;;;;;;4993941;28;20413;-82
2021/01/09 07:54:44;;;;;;;12.77;8.00;;;2.70;99.90;;;;;;4994329;28;20265;-82
2021/01/09 07:57:38;;;;;;;12.77;7.97;;;2.50;99.90;;;;;;4993243;28;20417;-83
2021/01/09 08:00:07;;;;;;;11.20;7.90;;;2.50;99.90;;;;;;4992286;28;20427;-82
2021/01/09 08:02:36;;;;;;;13.73;8.10;;;2.50;99.90;;;;;;4992743;28;20944;-84
2021/01/09 08:05:09;;;;;;;10.07;7.40;;;2.40;99.90;;;;;;4993166;28;20431;-82
2021/01/09 08:07:40;;;;;;;10.00;6.97;;;2.40;99.90;;;;;;4993060;28;20427;-82
2021/01/09 08:10:20;;;;;;;13.57;7.80;;;2.40;99.90;;;;;;4993003;28;20924;-82
2021/01/09 08:12:47;;;;;;;14.70;8.33;;;2.50;99.90;;;;;;4993853;28;20485;-85
2021/01/09 08:15:13;;;;;;;13.23;7.50;;;2.50;99.90;;;;;;4994700;28;20812;-89
2021/01/09 08:17:40;;;;;;;13.63;9.23;;;2.50;99.90;;;;;;4994627;28;20494;-86
2021/01/09 08:20:11;;;;;;;13.77;8.20;;;2.50;99.90;;;;;;4994837;28;20526;-87
2021/01/09 08:22:38;;;;;;;11.90;6.53;;;2.50;99.90;;;;;;4993696;28;20495;-88
2021/01/09 08:25:11;;;;;;;12.00;7.83;;;2.50;99.90;;;;;;4993848;28;20425;-87
2021/01/09 08:27:43;;;;;;;10.37;6.73;;;2.40;99.90;;;;;;4994680;28;20500;-86
2021/01/09 08:30:11;;;;;;;13.10;9.03;;;2.50;99.90;;;;;;4993422;28;20467;-83
2021/01/09 08:32:37;;;;;;;13.50;6.80;;;2.60;99.90;;;;;;4994482;28;20422;-86
2021/01/09 08:35:03;;;;;;;12.07;6.90;;;2.70;99.90;;;;;;4994550;28;20957;-92
2021/01/09 08:37:29;;;;;;;12.90;7.23;;;2.70;99.90;;;;;;4994946;28;20184;-88
2021/01/09 08:39:56;;;;;;;11.70;6.97;;;2.80;99.90;;;;;;4993319;28;20764;-85
2021/01/09 08:42:22;;;;;;;14.53;8.30;;;2.90;99.90;;;;;;4994689;28;20466;-88
2021/01/09 08:44:48;;;;;;;12.17;7.17;;;2.90;99.90;;;;;;4994397;28;20412;-88
2021/01/09 08:47:18;;;;;;;13.00;7.10;;;2.90;99.90;;;;;;4994195;28;20262;-82
2021/01/09 08:49:46;;;;;;;14.10;7.93;;;3.00;99.90;;;;;;4993681;28;20906;-82
2021/01/09 08:52:19;;;;;;;12.97;8.27;;;3.00;99.90;;;;;;4993553;28;20426;-82
2021/01/09 08:54:46;;;;;;;11.80;7.50;;;3.10;99.90;;;;;;4993615;28;20823;-84
2021/01/09 08:57:14;;;;;;;12.47;7.77;;;3.10;99.90;;;;;;4993641;28;20449;-82
2021/01/09 08:59:41;;;;;;;16.77;8.67;;;3.20;99.90;;;;;;4993715;28;20419;-83
2021/01/09 09:02:11;;;;;;;12.43;7.17;;;3.20;99.90;;;;;;4993200;28;20418;-82
2021/01/09 09:04:42;;;;;;;12.07;6.53;;;3.20;99.90;;;;;;4996967;28;20409;-82
2021/01/09 09:07:09;;;;;;;13.57;6.80;;;3.20;99.90;;;;;;4997645;28;20414;-83
2021/01/09 09:09:41;;;;;;;12.53;6.43;;;3.20;99.90;;;;;;4997688;28;20761;-83
2021/01/09 09:12:07;;;;;;;11.40;7.30;;;3.30;99.90;;;;;;4998143;28;20460;-83
2021/01/09 09:14:33;;;;;;;18.47;8.70;;;3.30;99.90;;;;;;4997028;28;20516;-84
2021/01/09 09:17:01;;;;;;;13.00;7.63;;;3.30;99.90;;;;;;4998366;28;20454;-83
2021/01/09 09:19:27;;;;;;;11.30;7.00;;;3.30;99.90;;;;;;4998451;28;20420;-83
2021/01/09 09:21:58;;;;;;;12.50;7.40;;;3.30;99.90;;;;;;4999338;28;20497;-83
2021/01/09 09:24:45;;;;;;;13.57;8.07;;;3.40;99.90;;;;;;4998802;28;20207;-83
2021/01/09 09:27:25;;;;;;;12.70;7.20;;;3.30;99.90;;;;;;4997921;28;20485;-84
2021/01/09 09:30:06;;;;;;;14.57;7.50;;;3.30;99.90;;;;;;5012258;28;21013;-84
2021/01/09 09:32:32;;;;;;;14.10;8.10;;;3.30;99.90;;;;;;4995496;28;20422;-84
2021/01/09 09:34:57;;;;;;;13.90;8.07;;;3.40;99.90;;;;;;4995779;28;20465;-83
2021/01/09 09:37:35;;;;;;;15.60;9.47;;;3.40;99.90;;;;;;4997069;28;20666;-83
2021/01/09 09:40:01;;;;;;;11.07;7.10;;;3.40;99.90;;;;;;4995864;28;20661;-84
2021/01/09 09:42:26;;;;;;;11.97;7.50;;;3.40;99.90;;;;;;4998089;28;20419;-85
2021/01/09 09:44:52;;;;;;;14.27;7.50;;;3.40;99.90;;;;;;4996106;28;20654;-85
2021/01/09 09:47:27;;;;;;;14.63;8.53;;;3.50;99.90;;;;;;4995776;28;20458;-88
2021/01/09 09:49:58;;;;;;;13.17;7.07;;;3.50;99.90;;;;;;4996097;28;20171;-89
2021/01/09 09:52:24;;;;;;;16.83;8.10;;;3.40;99.90;;;;;;4997687;28;20414;-89
2021/01/09 09:55:00;;;;;;;15.97;8.33;;;3.50;99.90;;;;;;4997681;28;20483;-89
2021/01/09 09:57:26;;;;;;;13.23;8.20;;;3.40;99.90;;;;;;4997622;28;20196;-89
2021/01/09 10:00:08;;;;;;;16.23;9.83;;;3.40;99.90;;;;;;4997158;28;20418;-91
2021/01/09 10:02:34;;;;;;;14.73;8.57;;;3.40;99.90;;;;;;4996918;28;20178;-89
2021/01/09 10:05:10;;;;;;;15.60;8.57;;;3.30;99.90;;;;;;4996338;28;20441;-87
2021/01/09 10:07:35;;;;;;;17.37;9.47;;;3.30;99.90;;;;;;4997256;28;20410;-89
2021/01/09 10:10:14;;;;;;;14.57;8.87;;;3.30;99.90;;;;;;4995787;28;20776;-87
2021/01/09 10:12:39;;;;;;;13.90;8.20;;;3.30;99.90;;;;;;4997487;28;20265;-87
2021/01/09 10:15:05;;;;;;;15.67;9.00;;;3.30;99.90;;;;;;4996595;28;20958;-85
2021/01/09 10:17:31;;;;;;;16.53;7.73;;;3.20;99.90;;;;;;4995846;28;20604;-87
2021/01/09 10:19:56;;;;;;;12.70;7.70;;;3.30;99.90;;;;;;4996024;28;20415;-87
2021/01/09 10:22:22;;;;;;;15.70;7.67;;;3.30;99.90;;;;;;4997276;28;20538;-88
2021/01/09 10:24:48;;;;;;;15.67;8.97;;;3.30;99.90;;;;;;4996934;28;20262;-87
2021/01/09 10:27:13;;;;;;;13.40;8.93;;;3.30;99.90;;;;;;4995862;28;20171;-86
2021/01/09 10:29:39;;;;;;;16.20;9.57;;;3.30;99.90;;;;;;4996772;28;20227;-85
2021/01/09 10:32:04;;;;;;;15.00;8.20;;;3.40;99.90;;;;;;4996510;28;20175;-88
2021/01/09 10:34:30;;;;;;;17.83;9.07;;;3.40;99.90;;;;;;4996019;28;20567;-91
2021/01/09 10:36:55;;;;;;;13.77;8.23;;;3.40;99.90;;;;;;4995764;28;20236;-89
2021/01/09 10:39:21;;;;;;;16.50;10.10;;;3.40;99.90;;;;;;4996863;28;20620;-90
2021/01/09 10:41:49;;;;;;;18.60;9.20;;;3.40;99.90;;;;;;4997010;28;20214;-89
2021/01/09 10:44:15;;;;;;;15.67;8.87;;;3.60;99.90;;;;;;4997006;28;20176;-88
2021/01/09 10:46:42;;;;;;;14.83;9.20;;;3.70;99.90;;;;;;4996394;28;20491;-86
2021/01/09 10:49:07;;;;;;;15.73;9.77;;;3.70;99.90;;;;;;4996721;28;20242;-85
2021/01/09 10:51:34;;;;;;;14.97;8.57;;;3.70;99.90;;;;;;4995984;28;20465;-84
2021/01/09 10:54:03;;;;;;;16.10;8.70;;;3.70;99.90;;;;;;4995942;28;20221;-83
2021/01/09 10:56:29;;;;;;;11.70;7.30;;;3.60;99.90;;;;;;4995828;28;20494;-84
2021/01/09 10:58:54;;;;;;;15.23;7.50;;;3.70;99.90;;;;;;4995701;28;20501;-85
2021/01/09 11:01:21;;;;;;;12.57;7.40;;;3.60;99.90;;;;;;4994521;28;20190;-85
2021/01/09 11:03:46;;;;;;;11.87;7.13;;;3.60;99.90;;;;;;4994197;28;20587;-85
2021/01/09 11:06:22;;;;;;;18.47;9.80;;;3.70;99.90;;;;;;4995589;28;20415;-83
2021/01/09 11:08:48;;;;;;;17.10;8.90;;;3.70;99.90;;;;;;4995618;28;20281;-83
2021/01/09 11:11:14;;;;;;;13.00;7.63;;;3.70;99.90;;;;;;4996088;28;20426;-87
2021/01/09 11:13:40;;;;;;;16.57;10.07;;;3.70;99.90;;;;;;4996150;28;20448;-90
2021/01/09 11:16:05;;;;;;;13.27;8.10;;;3.50;99.90;;;;;;4996529;28;20206;-88
2021/01/09 11:18:31;;;;;;;12.53;7.80;;;3.50;99.90;;;;;;4996387;28;20167;-86
2021/01/09 11:20:57;;;;;;;15.53;9.40;;;3.60;99.90;;;;;;4997075;28;20572;-89
2021/01/09 11:23:22;;;;;;;16.53;9.80;;;3.60;99.90;;;;;;5007642;28;20279;-87
2021/01/09 11:25:49;;;;;;;14.40;7.10;;;3.60;99.90;;;;;;5015807;28;20170;-89
2021/01/09 11:28:15;;;;;;;13.50;8.23;;;3.60;99.90;;;;;;5013374;28;20601;-91
2021/01/09 11:30:44;;;;;;;12.93;8.83;;;3.60;99.90;;;;;;5001965;28;20462;-89
2021/01/09 11:33:09;;;;;;;16.40;8.30;;;3.70;99.90;;;;;;4993343;28;20427;-89
2021/01/09 11:35:35;;;;;;;11.47;6.87;;;3.70;99.90;;;;;;4996721;28;20487;-92
2021/01/09 11:38:01;;;;;;;14.70;8.63;;;3.80;99.90;;;;;;5004824;28;20183;-87
2021/01/09 11:40:27;;;;;;;13.77;8.70;;;3.80;99.90;;;;;;5008541;28;20179;-88
2021/01/09 11:42:53;;;;;;;13.93;7.47;;;3.80;99.90;;;;;;5008015;28;21740;-86
2021/01/09 11:45:20;;;;;;;13.23;7.90;;;3.80;99.90;;;;;;5006250;28;20457;-83
2021/01/09 11:47:46;;;;;;;14.57;8.90;;;3.70;99.90;;;;;;5007411;28;20914;-86
2021/01/09 11:50:12;;;;;;;16.57;8.23;;;3.70;99.90;;;;;;5021488;28;21024;-88
2021/01/09 11:52:39;;;;;;;14.20;7.53;;;3.80;99.90;;;;;;5007696;28;20414;-86
2021/01/09 11:55:06;;;;;;;15.70;7.40;;;3.90;99.90;;;;;;5004301;28;20560;-86
2021/01/09 11:57:32;;;;;;;16.63;8.27;;;3.90;99.90;;;;;;5008299;28;20501;-85
2021/01/09 11:59:58;;;;;;;15.03;8.47;;;4.60;99.90;;;;;;5008342;28;20458;-88
2021/01/09 12:02:23;;;;;;;14.43;7.43;;;4.60;99.90;;;;;;5006657;28;20182;-87
2021/01/09 12:04:49;;;;;;;9.63;6.43;;;4.60;99.90;;;;;;5013414;28;20301;-85
2021/01/09 12:07:15;;;;;;;11.90;7.03;;;4.60;99.90;;;;;;5002492;28;20651;-87
2021/01/09 12:09:41;;;;;;;17.77;8.07;;;4.60;99.90;;;;;;5013071;28;20418;-83
2021/01/09 12:12:07;;;;;;;12.67;8.23;;;4.60;99.90;;;;;;5004723;28;20207;-84
2021/01/09 12:14:33;;;;;;;14.93;7.77;;;4.60;99.90;;;;;;4999722;28;20295;-87
2021/01/09 12:17:00;;;;;;;10.83;8.03;;;4.50;99.90;;;;;;5002990;28;20457;-87
2021/01/09 12:19:27;;;;;;;11.20;6.43;;;4.40;99.90;;;;;;4999506;28;20962;-83
2021/01/09 12:21:53;;;;;;;15.00;8.60;;;4.40;99.90;;;;;;5003955;28;20765;-84
2021/01/09 12:24:19;;;;;;;14.40;7.43;;;4.30;99.90;;;;;;4993870;28;20418;-83
2021/01/09 12:26:45;;;;;;;13.63;7.73;;;4.20;99.90;;;;;;4993814;28;20514;-83
2021/01/09 12:29:10;;;;;;;12.40;6.53;;;4.10;99.90;;;;;;4994026;28;20181;-83
2021/01/09 12:31:36;;;;;;;14.33;8.80;;;4.10;99.90;;;;;;4994214;28;20183;-83
2021/01/09 12:34:02;;;;;;;13.43;8.03;;;4.10;99.90;;;;;;4994149;28;20310;-83
2021/01/09 12:36:29;;;;;;;11.13;7.47;;;4.10;99.90;;;;;;4994064;28;20477;-83
2021/01/09 12:38:55;;;;;;;16.73;9.30;;;4.00;99.90;;;;;;4992493;28;20468;-83
2021/01/09 12:41:30;;;;;;;10.30;7.07;;;3.90;99.90;;;;;;4993366;28;20456;-88
2021/01/09 12:43:55;;;;;;;15.60;8.43;;;3.90;99.90;;;;;;4994013;28;20406;-86
2021/01/09 12:46:21;;;;;;;15.30;8.50;;;4.10;99.90;;;;;;4994004;28;20550;-84
2021/01/09 12:48:46;;;;;;;13.43;8.73;;;4.20;99.90;;;;;;4993821;28;20172;-86
2021/01/09 12:51:12;;;;;;;16.90;8.70;;;4.40;99.90;;;;;;4993812;28;20182;-86